Time;durP1;ratioP1;P1;durP2;ratioP2;P2;SDS_P1;SDS_P2;PMS_P1;PMS_P2;Temp;Humidity;BMP_temperature;BMP_pressure;BME280_temperature;BME280_humidity;BME280_pressure;Samples;Min_cycle;Max_cycle;Signal;HPM_P1;HPM_P2
2022/01/22 00:00:12;;;;;;;1.10;1.10;;;2.30;98.00;;;;;;5113318;28;20529;-66
2022/01/22 00:02:39;;;;;;;1.10;1.10;;;2.40;98.00;;;;;;5113134;28;20454;-67
2022/01/22 00:05:09;;;;;;;1.10;1.00;;;2.40;98.00;;;;;;5113306;28;20488;-67
2022/01/22 00:07:37;;;;;;;1.93;1.83;;;2.40;98.00;;;;;;5113088;28;20490;-67
2022/01/22 00:10:07;;;;;;;2.10;1.37;;;2.50;98.00;;;;;;5094865;28;21087;-67
2022/01/22 00:13:06;;;;;;;1.10;1.00;;;2.60;98.00;;;;;;5112991;28;20463;-68
2022/01/22 00:15:35;;;;;;;1.20;1.20;;;2.60;98.00;;;;;;5112968;28;20486;-66
2022/01/22 00:18:02;;;;;;;1.20;0.97;;;2.70;98.00;;;;;;5112649;28;20465;-67
2022/01/22 00:20:30;;;;;;;1.40;1.40;;;2.80;98.00;;;;;;5112830;28;20899;-67
2022/01/22 00:22:58;;;;;;;1.20;1.10;;;2.80;98.00;;;;;;5112834;28;20508;-66
2022/01/22 00:25:25;;;;;;;1.10;1.00;;;2.90;98.00;;;;;;5094590;28;20497;-66
2022/01/22 00:27:53;;;;;;;1.10;1.00;;;2.90;98.00;;;;;;5112740;28;20537;-66
2022/01/22 00:30:23;;;;;;;1.33;1.27;;;2.80;98.00;;;;;;5112699;28;20497;-67
2022/01/22 00:32:51;;;;;;;1.10;1.03;;;2.70;98.00;;;;;;5112762;28;20486;-67
2022/01/22 00:35:20;;;;;;;1.30;1.20;;;2.60;98.00;;;;;;5112664;28;20547;-67
2022/01/22 00:37:51;;;;;;;1.10;1.00;;;2.70;98.00;;;;;;5112524;28;20569;-67
2022/01/22 00:40:19;;;;;;;1.20;1.10;;;2.60;98.00;;;;;;5112611;28;21041;-67
2022/01/22 00:42:47;;;;;;;1.70;1.60;;;2.50;98.00;;;;;;5094520;28;20486;-67
2022/01/22 00:45:15;;;;;;;1.53;1.43;;;2.50;98.00;;;;;;5112734;28;20462;-67
2022/01/22 00:47:42;;;;;;;1.57;1.50;;;2.50;98.00;;;;;;5112401;28;20513;-66
2022/01/22 00:50:12;;;;;;;1.10;1.10;;;2.50;98.00;;;;;;5112670;28;20487;-67
2022/01/22 00:52:39;;;;;;;1.67;1.43;;;2.70;98.00;;;;;;5112150;28;20876;-66
2022/01/22 00:55:12;;;;;;;1.40;1.30;;;2.80;98.00;;;;;;5112457;28;20549;-67
2022/01/22 00:57:39;;;;;;;1.20;1.10;;;2.80;98.00;;;;;;5094658;28;20451;-67
2022/01/22 01:00:12;;;;;;;1.10;1.07;;;2.90;98.00;;;;;;5112458;28;20538;-67
2022/01/22 01:02:39;;;;;;;1.10;1.00;;;2.90;98.00;;;;;;5111975;28;20485;-66
2022/01/22 01:05:08;;;;;;;1.50;1.50;;;3.00;98.00;;;;;;5112339;28;20863;-67
2022/01/22 01:07:35;;;;;;;1.20;1.00;;;3.00;98.00;;;;;;5111798;28;20539;-67
2022/01/22 01:10:02;;;;;;;1.10;1.00;;;2.80;98.00;;;;;;5111179;28;20553;-67
2022/01/22 01:12:30;;;;;;;1.20;1.00;;;2.90;98.00;;;;;;5111426;28;20494;-67
2022/01/22 01:15:12;;;;;;;1.10;1.00;;;2.90;98.00;;;;;;5112110;28;20519;-66
2022/01/22 01:17:59;;;;;;;1.20;1.10;;;2.90;98.00;;;;;;5096518;28;20446;-67
2022/01/22 01:34:13;;;;;;;1.73;1.70;;;2.90;98.00;;;;;;5112072;28;20449;-66
2022/01/22 01:36:42;;;;;;;1.10;1.00;;;3.00;98.00;;;;;;5111960;28;20486;-67
2022/01/22 01:39:13;;;;;;;1.63;1.60;;;3.20;98.00;;;;;;5111728;28;21049;-67
2022/01/22 01:41:42;;;;;;;1.57;1.40;;;3.20;98.00;;;;;;5111788;28;20458;-67
2022/01/22 01:44:11;;;;;;;1.47;1.40;;;3.10;98.00;;;;;;5111913;28;20940;-67
2022/01/22 01:46:43;;;;;;;1.10;0.90;;;3.00;98.00;;;;;;5093802;28;20451;-66
2022/01/22 01:49:11;;;;;;;1.33;1.27;;;3.00;98.00;;;;;;5111874;28;20486;-66
2022/01/22 01:51:38;;;;;;;1.10;1.00;;;2.90;98.00;;;;;;5111595;28;20932;-66
2022/01/22 01:54:23;;;;;;;1.10;1.00;;;3.00;98.00;;;;;;5111876;28;20455;-66
2022/01/22 01:59:36;;;;;;;1.43;1.23;;;2.90;98.00;;;;;;5111809;28;20546;-66
2022/01/22 02:02:04;;;;;;;1.10;1.00;;;3.00;98.00;;;;;;5093549;28;20552;-67
2022/01/22 02:04:32;;;;;;;1.10;1.00;;;3.00;98.00;;;;;;5111745;28;20928;-66
2022/01/22 02:06:59;;;;;;;1.20;1.10;;;3.00;98.00;;;;;;5115306;28;20901;-67
2022/01/22 02:09:26;;;;;;;1.70;1.60;;;3.20;98.00;;;;;;5097392;28;20485;-66
2022/01/22 02:12:01;;;;;;;1.20;1.17;;;3.20;98.00;;;;;;5115509;28;20447;-67
2022/01/22 02:25:31;;;;;;;1.57;1.20;;;3.10;98.00;;;;;;5115315;28;20446;-67
2022/01/22 02:27:59;;;;;;;1.10;1.07;;;3.10;98.00;;;;;;5115138;28;20464;-67
2022/01/22 02:30:30;;;;;;;3.50;1.40;;;3.10;98.00;;;;;;5115252;28;20564;-67
2022/01/22 02:33:15;;;;;;;1.10;1.00;;;3.00;98.00;;;;;;5097778;28;20458;-67
2022/01/22 02:35:48;;;;;;;1.10;1.00;;;3.00;98.00;;;;;;5115078;28;20454;-67
2022/01/22 02:38:21;;;;;;;1.77;1.40;;;3.00;98.00;;;;;;5115241;28;20481;-67
2022/01/22 02:40:49;;;;;;;1.10;1.00;;;2.90;98.00;;;;;;5115075;28;20979;-66
2022/01/22 02:43:18;;;;;;;1.10;1.10;;;2.90;98.00;;;;;;5114747;28;20455;-66
2022/01/22 02:45:47;;;;;;;1.10;1.00;;;2.90;98.00;;;;;;5096896;28;20462;-66
2022/01/22 02:48:14;;;;;;;1.20;1.13;;;2.90;98.00;;;;;;5114759;28;20462;-67
2022/01/22 02:50:42;;;;;;;1.10;1.10;;;2.90;98.00;;;;;;5096223;28;20511;-67
2022/01/22 02:53:13;;;;;;;1.10;1.10;;;2.90;98.00;;;;;;5114821;28;20504;-66
2022/01/22 02:55:44;;;;;;;1.10;1.00;;;2.90;98.00;;;;;;5114520;28;20458;-68
2022/01/22 02:58:11;;;;;;;1.33;1.17;;;2.90;98.00;;;;;;5114422;28;20450;-67
2022/01/22 03:00:38;;;;;;;1.10;1.00;;;3.00;98.00;;;;;;5114566;28;20539;-66
2022/01/22 03:03:07;;;;;;;1.10;1.00;;;3.00;98.00;;;;;;5096655;28;20856;-67
2022/01/22 03:05:35;;;;;;;1.10;1.10;;;3.00;98.00;;;;;;5114353;28;20446;-67
2022/01/22 03:08:06;;;;;;;1.77;1.30;;;3.00;98.00;;;;;;5114234;28;20522;-67
2022/01/22 03:10:33;;;;;;;1.40;1.27;;;3.00;98.00;;;;;;5114482;28;20458;-66
2022/01/22 03:13:45;;;;;;;1.10;1.00;;;3.00;98.00;;;;;;5114166;28;20454;-67
2022/01/22 03:16:13;;;;;;;1.10;1.10;;;3.00;98.00;;;;;;5113820;28;20454;-66
2022/01/22 03:18:48;;;;;;;1.10;1.00;;;3.00;98.00;;;;;;5114152;28;20466;-67
2022/01/22 03:21:32;;;;;;;1.20;1.20;;;3.10;98.00;;;;;;5096941;28;20572;-67
2022/01/22 03:29:36;;;;;;;1.33;1.33;;;3.30;98.00;;;;;;5114132;28;20481;-66
2022/01/22 03:32:04;;;;;;;1.20;1.20;;;3.40;98.00;;;;;;5113830;28;20455;-67
2022/01/22 03:34:37;;;;;;;1.43;1.33;;;3.50;98.00;;;;;;5113880;28;20462;-67
2022/01/22 03:37:06;;;;;;;1.50;1.40;;;3.30;98.00;;;;;;5096545;28;20476;-67
2022/01/22 03:39:33;;;;;;;1.40;1.30;;;3.20;98.00;;;;;;5095786;28;20504;-67
2022/01/22 03:42:00;;;;;;;4.03;1.83;;;3.10;98.00;;;;;;5113668;28;20492;-66
2022/01/22 03:44:27;;;;;;;1.43;1.27;;;3.00;98.00;;;;;;5113789;28;20513;-66
2022/01/22 03:46:56;;;;;;;1.10;0.90;;;3.00;98.00;;;;;;5113714;28;20539;-67
2022/01/22 03:49:23;;;;;;;1.30;1.20;;;3.00;98.00;;;;;;5113757;28;20487;-66
2022/01/22 03:51:50;;;;;;;1.10;1.10;;;3.00;98.00;;;;;;5113648;28;21165;-66
2022/01/22 03:54:17;;;;;;;1.10;1.00;;;3.10;98.00;;;;;;5113649;28;20537;-66
2022/01/22 03:56:46;;;;;;;1.17;1.10;;;3.10;98.00;;;;;;5095421;28;20489;-67
2022/01/22 03:59:15;;;;;;;2.00;1.93;;;3.10;98.00;;;;;;5113663;28;20936;-66
2022/01/22 04:04:31;;;;;;;2.90;1.63;;;3.10;98.00;;;;;;5113871;28;20436;-66
2022/01/22 04:10:00;;;;;;;1.57;1.20;;;3.20;98.00;;;;;;5113464;28;20452;-66
2022/01/22 04:12:35;;;;;;;1.10;1.00;;;3.20;98.00;;;;;;5095361;28;20463;-67
2022/01/22 04:15:05;;;;;;;1.10;0.90;;;3.20;98.00;;;;;;5112977;28;20532;-66
2022/01/22 04:24:49;;;;;;;1.10;1.00;;;3.10;98.00;;;;;;5112464;28;20869;-67
2022/01/22 04:26:04;;;;;;;1.57;1.43;;;3.20;98.00;;;;;;5112607;28;20504;-67
2022/01/22 04:28:31;;;;;;;1.10;1.00;;;3.30;98.00;;;;;;5112229;28;20458;-66
2022/01/22 04:30:58;;;;;;;1.10;1.00;;;3.30;98.00;;;;;;5112406;28;20490;-66
2022/01/22 04:33:25;;;;;;;1.10;1.00;;;3.30;98.00;;;;;;5112591;28;20972;-66
2022/01/22 04:35:53;;;;;;;1.10;1.00;;;3.40;98.00;;;;;;5112651;28;20453;-67
2022/01/22 04:38:20;;;;;;;1.57;1.30;;;3.50;98.00;;;;;;5094527;28;20497;-67
2022/01/22 04:40:48;;;;;;;3.67;1.30;;;3.60;98.00;;;;;;5112374;28;20486;-66
2022/01/22 04:43:15;;;;;;;1.20;1.20;;;3.60;98.00;;;;;;5077841;28;20516;-67
2022/01/22 04:46:05;;;;;;;1.47;1.43;;;3.50;98.00;;;;;;5112385;28;20457;-66
2022/01/22 04:48:48;;;;;;;2.33;1.50;;;3.50;98.00;;;;;;5112503;28;20478;-67
2022/01/22 04:56:46;;;;;;;1.10;1.10;;;3.30;98.00;;;;;;5112317;28;20855;-66
2022/01/22 04:59:14;;;;;;;1.50;1.40;;;3.30;98.00;;;;;;5112486;28;20487;-67
2022/01/22 05:01:41;;;;;;;1.10;1.00;;;3.30;98.00;;;;;;5112430;28;20535;-67
2022/01/22 05:04:08;;;;;;;1.10;1.00;;;3.30;98.00;;;;;;5112465;28;20496;-67
2022/01/22 05:06:37;;;;;;;1.10;1.00;;;3.40;98.00;;;;;;5112271;28;20459;-66
2022/01/22 05:09:04;;;;;;;1.10;1.00;;;3.30;98.00;;;;;;5077665;28;20518;-67
2022/01/22 05:11:31;;;;;;;1.20;1.10;;;3.30;98.00;;;;;;5112356;28;20511;-67
2022/01/22 05:13:58;;;;;;;1.40;1.30;;;3.30;98.00;;;;;;5094324;28;20461;-67
2022/01/22 05:16:25;;;;;;;1.10;1.00;;;3.40;98.00;;;;;;5112194;28;20511;-67
2022/01/22 05:18:57;;;;;;;1.20;1.20;;;3.40;98.00;;;;;;5112262;28;20458;-67
2022/01/22 05:21:25;;;;;;;1.83;1.77;;;3.40;98.00;;;;;;5112233;28;20525;-67
2022/01/22 05:23:57;;;;;;;1.30;1.10;;;3.40;98.00;;;;;;5112208;28;20459;-66
2022/01/22 05:29:21;;;;;;;1.50;1.40;;;3.50;98.00;;;;;;5089015;28;20457;-67
2022/01/22 05:32:16;;;;;;;1.30;1.30;;;3.50;98.00;;;;;;5111973;28;20458;-66
2022/01/22 05:37:25;;;;;;;1.10;1.10;;;3.50;98.00;;;;;;5111767;28;20435;-66
2022/01/22 05:39:54;;;;;;;1.47;1.37;;;3.40;98.00;;;;;;5112159;28;20509;-67
2022/01/22 05:42:21;;;;;;;6.50;2.60;;;3.30;98.00;;;;;;5116025;28;20453;-66
2022/01/22 05:44:48;;;;;;;1.20;1.20;;;3.20;98.00;;;;;;5097678;28;20463;-67
2022/01/22 05:47:21;;;;;;;1.73;1.53;;;3.20;98.00;;;;;;5115778;28;20869;-68
2022/01/22 05:49:49;;;;;;;1.40;1.40;;;3.20;98.00;;;;;;5115941;28;20532;-67
2022/01/22 05:52:23;;;;;;;1.10;1.10;;;3.20;98.00;;;;;;5115819;28;20458;-67
2022/01/22 06:00:20;;;;;;;1.50;1.47;;;3.20;98.00;;;;;;5115029;28;20965;-67
2022/01/22 06:02:47;;;;;;;1.10;1.00;;;3.30;98.00;;;;;;5114951;28;20968;-67
2022/01/22 06:05:14;;;;;;;1.10;1.07;;;3.30;98.00;;;;;;5115669;28;20872;-67
2022/01/22 06:07:42;;;;;;;1.10;1.00;;;3.30;98.00;;;;;;5115649;28;20498;-67
2022/01/22 06:10:17;;;;;;;1.87;1.40;;;3.30;98.00;;;;;;5115628;28;20546;-66
2022/01/22 06:12:58;;;;;;;1.20;1.10;;;3.40;98.00;;;;;;5115450;28;20449;-67
2022/01/22 06:15:25;;;;;;;1.27;1.23;;;3.50;98.00;;;;;;5115480;28;21130;-66
2022/01/22 06:17:52;;;;;;;1.37;1.20;;;3.50;98.00;;;;;;5115403;28;20512;-67
2022/01/22 06:20:19;;;;;;;1.10;0.97;;;3.50;98.00;;;;;;5115163;28;20929;-67
2022/01/22 06:22:46;;;;;;;1.63;1.40;;;3.50;98.00;;;;;;5115316;28;20457;-68
2022/01/22 06:25:14;;;;;;;1.10;1.00;;;3.50;98.00;;;;;;5115325;28;20463;-67
2022/01/22 06:27:41;;;;;;;2.03;1.30;;;3.50;98.00;;;;;;5115157;28;20509;-67
2022/01/22 06:30:11;;;;;;;1.10;1.00;;;3.50;98.00;;;;;;5115125;28;20512;-66
2022/01/22 06:32:38;;;;;;;1.57;1.57;;;3.50;98.00;;;;;;5115085;28;20538;-66
2022/01/22 06:35:06;;;;;;;1.30;1.30;;;3.60;98.00;;;;;;5115075;28;20885;-67
2022/01/22 06:37:33;;;;;;;1.10;1.00;;;3.50;98.00;;;;;;5115040;28;20590;-66
2022/01/22 06:42:44;;;;;;;1.10;1.10;;;3.50;98.00;;;;;;5113893;28;20447;-67
2022/01/22 06:45:12;;;;;;;1.20;1.10;;;3.60;98.00;;;;;;5114949;28;20494;-67
2022/01/22 06:47:40;;;;;;;1.10;1.10;;;3.60;98.00;;;;;;5114824;28;20444;-67
2022/01/22 06:50:08;;;;;;;1.10;1.00;;;3.70;98.00;;;;;;5115019;28;20501;-67
2022/01/22 06:52:37;;;;;;;1.40;1.23;;;3.70;98.00;;;;;;5114551;28;20454;-66
2022/01/22 06:55:06;;;;;;;1.90;1.83;;;3.60;98.00;;;;;;5114711;28;20478;-66
2022/01/22 06:57:33;;;;;;;1.30;1.20;;;3.70;98.00;;;;;;5114986;28;20497;-67
2022/01/22 07:00:00;;;;;;;1.10;1.00;;;3.70;98.00;;;;;;5114460;28;20490;-67
2022/01/22 07:02:31;;;;;;;1.47;1.37;;;3.80;98.00;;;;;;5114424;28;20574;-67
2022/01/22 07:04:58;;;;;;;1.83;1.37;;;3.70;98.00;;;;;;5096713;28;20450;-66
2022/01/22 07:07:25;;;;;;;2.27;1.40;;;3.70;98.00;;;;;;5114338;28;20453;-67
2022/01/22 07:09:52;;;;;;;2.70;1.53;;;3.60;98.00;;;;;;5114391;28;20862;-67
2022/01/22 07:12:19;;;;;;;1.40;1.30;;;3.50;98.00;;;;;;5114289;28;20531;-67
2022/01/22 07:14:49;;;;;;;1.20;1.20;;;3.40;98.00;;;;;;5114450;28;20487;-66
2022/01/22 07:17:16;;;;;;;1.87;1.47;;;3.40;98.00;;;;;;5114065;28;20464;-67
2022/01/22 07:19:45;;;;;;;1.43;1.33;;;3.40;98.00;;;;;;5113906;28;20473;-67
2022/01/22 07:22:33;;;;;;;1.10;1.10;;;3.30;98.00;;;;;;5113944;28;20510;-66
2022/01/22 07:25:00;;;;;;;1.30;1.20;;;3.30;98.00;;;;;;5113981;28;20541;-66
2022/01/22 07:27:27;;;;;;;1.23;1.17;;;3.40;98.00;;;;;;5114015;28;20486;-66
2022/01/22 07:29:54;;;;;;;1.10;1.00;;;3.50;98.00;;;;;;5114097;28;20538;-67
2022/01/22 07:32:29;;;;;;;1.43;1.30;;;3.40;98.00;;;;;;5113846;28;20452;-66
2022/01/22 07:34:58;;;;;;;1.23;1.17;;;3.40;98.00;;;;;;5113781;28;20477;-68
2022/01/22 07:37:25;;;;;;;1.10;0.90;;;3.40;98.00;;;;;;5095503;28;20464;-67
2022/01/22 07:39:53;;;;;;;1.10;1.00;;;3.30;98.00;;;;;;5113809;28;20497;-67
2022/01/22 07:42:21;;;;;;;2.63;1.63;;;3.30;98.00;;;;;;5112900;28;20486;-67
2022/01/22 07:44:48;;;;;;;1.77;1.20;;;3.30;98.00;;;;;;5113669;28;20498;-66
2022/01/22 07:47:15;;;;;;;1.10;1.00;;;3.30;98.00;;;;;;5113713;28;20948;-66
2022/01/22 07:49:43;;;;;;;1.80;1.70;;;3.30;98.00;;;;;;5113669;28;20998;-67
2022/01/22 07:52:11;;;;;;;1.20;1.10;;;3.30;98.00;;;;;;5113511;28;20496;-67
2022/01/22 07:54:38;;;;;;;2.07;1.33;;;3.40;98.00;;;;;;5113603;28;20530;-67
2022/01/22 07:57:06;;;;;;;1.20;1.17;;;3.40;98.00;;;;;;5095311;28;20475;-67
2022/01/22 07:59:34;;;;;;;2.20;2.00;;;3.50;98.00;;;;;;5113350;28;20553;-66
2022/01/22 08:02:02;;;;;;;1.33;1.23;;;3.60;98.00;;;;;;5113209;28;20491;-66
2022/01/22 08:04:30;;;;;;;1.10;1.00;;;3.50;98.00;;;;;;5112844;28;20460;-67
2022/01/22 08:07:00;;;;;;;1.20;1.10;;;3.50;98.00;;;;;;5113406;28;20489;-67
2022/01/22 08:09:28;;;;;;;1.40;1.37;;;3.50;98.00;;;;;;5113216;28;20517;-66
2022/01/22 08:11:55;;;;;;;1.43;1.33;;;3.50;98.00;;;;;;5113419;28;20541;-67
2022/01/22 08:14:22;;;;;;;1.10;0.90;;;3.60;98.00;;;;;;5113600;28;20478;-66
2022/01/22 08:16:49;;;;;;;1.20;1.20;;;3.60;98.00;;;;;;5113241;28;20458;-67
2022/01/22 08:19:17;;;;;;;1.20;1.20;;;3.70;98.00;;;;;;5112980;28;20536;-65
2022/01/22 08:21:46;;;;;;;1.50;1.40;;;3.70;98.00;;;;;;5113225;28;20582;-67
2022/01/22 08:24:13;;;;;;;1.10;1.00;;;3.60;98.00;;;;;;5112706;28;20507;-67
2022/01/22 08:26:46;;;;;;;1.50;1.40;;;3.60;98.00;;;;;;5112872;28;20450;-67
2022/01/22 08:29:14;;;;;;;1.10;1.00;;;3.50;98.00;;;;;;5112896;28;20461;-66
2022/01/22 08:31:50;;;;;;;1.10;1.10;;;3.50;98.00;;;;;;5112687;28;20570;-67
2022/01/22 08:36:58;;;;;;;1.10;1.10;;;3.60;98.00;;;;;;5088746;28;20569;-67
2022/01/22 08:39:26;;;;;;;1.60;1.37;;;3.60;98.00;;;;;;5112562;28;20508;-67
2022/01/22 08:41:55;;;;;;;1.10;1.00;;;3.60;98.00;;;;;;5112013;28;20486;-67
2022/01/22 08:44:22;;;;;;;13.93;2.80;;;3.70;98.00;;;;;;5112503;28;20537;-67
2022/01/22 08:46:49;;;;;;;1.20;1.20;;;3.50;98.00;;;;;;5111851;28;20490;-66
2022/01/22 08:49:17;;;;;;;1.10;1.00;;;3.50;98.00;;;;;;5112442;28;20508;-67
2022/01/22 08:51:46;;;;;;;1.43;1.30;;;3.40;98.00;;;;;;5114241;27;20984;-67
2022/01/22 08:54:15;;;;;;;1.10;1.00;;;3.50;98.00;;;;;;5124739;27;20762;-67
2022/01/22 08:57:40;;;;;;;2.07;1.67;;;3.80;98.00;;;;;;5147981;27;21047;-68
2022/01/22 09:00:09;;;;;;;1.20;1.10;;;3.90;98.00;;;;;;5127281;28;20502;-68
2022/01/22 09:02:35;;;;;;;1.10;1.00;;;3.80;98.00;;;;;;5127122;27;20554;-68
2022/01/22 09:05:02;;;;;;;1.10;1.00;;;3.90;98.00;;;;;;5126344;28;20451;-69
2022/01/22 09:07:35;;;;;;;1.30;1.27;;;4.00;98.00;;;;;;5127358;28;20482;-68
2022/01/22 09:10:09;;;;;;;1.10;1.10;;;3.90;98.00;;;;;;5127457;28;20493;-68
2022/01/22 09:12:36;;;;;;;1.40;1.30;;;3.90;98.00;;;;;;5127168;28;20549;-68
2022/01/22 09:15:05;;;;;;;1.10;1.10;;;3.90;98.00;;;;;;5126940;28;20482;-67
2022/01/22 09:17:32;;;;;;;1.50;1.40;;;4.00;98.00;;;;;;5126866;28;20509;-67
2022/01/22 09:20:01;;;;;;;1.97;1.10;;;4.00;98.00;;;;;;5127104;28;20459;-67
2022/01/22 09:22:28;;;;;;;1.20;1.10;;;4.00;98.00;;;;;;5127314;28;20823;-66
2022/01/22 09:24:55;;;;;;;1.87;1.40;;;4.00;98.00;;;;;;5127025;28;20455;-68
2022/01/22 09:27:28;;;;;;;1.10;1.00;;;3.90;98.00;;;;;;5127105;28;20937;-68
2022/01/22 09:29:56;;;;;;;1.10;0.93;;;4.00;98.00;;;;;;5125541;28;20451;-68
2022/01/22 09:32:24;;;;;;;1.60;1.10;;;4.00;98.00;;;;;;5126814;28;20493;-69
2022/01/22 09:34:51;;;;;;;1.20;1.00;;;4.00;98.00;;;;;;5126739;28;20462;-68
2022/01/22 09:37:18;;;;;;;1.10;1.00;;;3.90;98.00;;;;;;5129413;28;20513;-66
2022/01/22 09:39:47;;;;;;;1.10;1.00;;;4.00;98.00;;;;;;5129379;28;20457;-66
2022/01/22 09:42:17;;;;;;;1.10;1.10;;;3.90;98.00;;;;;;5127861;28;20525;-66
2022/01/22 09:44:50;;;;;;;1.10;1.00;;;3.90;98.00;;;;;;5129223;27;20545;-77
2022/01/22 09:47:21;;;;;;;1.20;1.20;;;3.90;98.00;;;;;;5128726;28;20933;-66
2022/01/22 09:49:52;;;;;;;1.37;1.27;;;3.90;98.00;;;;;;5129207;28;20464;-67
2022/01/22 09:52:20;;;;;;;1.10;1.00;;;4.00;98.00;;;;;;5128984;28;20941;-67
2022/01/22 09:54:47;;;;;;;1.10;1.00;;;3.80;98.00;;;;;;5128876;28;20478;-67
2022/01/22 09:57:14;;;;;;;1.30;1.27;;;3.80;98.00;;;;;;5128659;28;20517;-67
2022/01/22 09:59:41;;;;;;;1.10;0.90;;;3.70;98.00;;;;;;5128049;27;20462;-67
2022/01/22 10:02:09;;;;;;;1.10;1.00;;;3.70;98.00;;;;;;5128755;28;21166;-67
2022/01/22 10:04:38;;;;;;;1.13;1.10;;;3.80;98.00;;;;;;5128791;28;20485;-67
2022/01/22 10:07:14;;;;;;;1.10;1.00;;;3.80;98.00;;;;;;5124615;28;20494;-67
2022/01/22 10:09:55;;;;;;;3.00;2.13;;;3.80;98.00;;;;;;5113739;28;20486;-67
2022/01/22 10:12:23;;;;;;;1.10;1.00;;;3.90;98.00;;;;;;5114996;28;20506;-67
2022/01/22 10:15:06;;;;;;;1.43;1.37;;;3.90;98.00;;;;;;5114926;28;20504;-67
2022/01/22 10:17:44;;;;;;;1.30;1.20;;;3.90;98.00;;;;;;5114911;28;20568;-67
2022/01/22 10:20:30;;;;;;;1.10;1.00;;;3.90;98.00;;;;;;5114828;28;20455;-67
2022/01/22 10:23:09;;;;;;;1.30;1.30;;;3.90;98.00;;;;;;5114717;28;20545;-67
2022/01/22 10:25:40;;;;;;;1.10;1.00;;;4.00;98.00;;;;;;5114848;28;20455;-67
2022/01/22 10:28:12;;;;;;;1.10;1.00;;;4.00;98.00;;;;;;5114690;28;20463;-67
2022/01/22 10:30:43;;;;;;;1.10;1.00;;;4.00;98.00;;;;;;5113827;28;20869;-67
2022/01/22 10:33:27;;;;;;;1.10;1.03;;;4.00;98.00;;;;;;5114539;28;20454;-67
2022/01/22 10:35:55;;;;;;;1.30;1.20;;;4.00;98.00;;;;;;5114633;28;20877;-67
2022/01/22 10:38:24;;;;;;;1.10;1.10;;;3.90;98.00;;;;;;5114499;28;20458;-67
2022/01/22 10:40:56;;;;;;;1.10;1.00;;;4.00;98.00;;;;;;5114430;28;20486;-67
2022/01/22 10:43:31;;;;;;;1.10;1.00;;;4.00;98.00;;;;;;5114497;28;20534;-67
2022/01/22 10:46:06;;;;;;;1.10;1.00;;;4.00;98.00;;;;;;5114350;28;20499;-67
2022/01/22 10:48:33;;;;;;;1.43;1.43;;;4.00;98.00;;;;;;5114198;28;20499;-67
2022/01/22 10:51:06;;;;;;;1.10;1.00;;;3.90;98.00;;;;;;5093604;28;20920;-67
2022/01/22 10:53:44;;;;;;;1.20;1.10;;;3.90;98.00;;;;;;5093150;28;20517;-67
2022/01/22 10:56:13;;;;;;;1.23;1.13;;;3.80;98.00;;;;;;5092855;28;20515;-67
2022/01/22 10:58:57;;;;;;;1.10;1.00;;;3.80;98.00;;;;;;5091592;28;20875;-67
2022/01/22 11:01:27;;;;;;;1.40;1.23;;;3.90;98.00;;;;;;5093039;28;20460;-67
2022/01/22 11:04:05;;;;;;;1.10;0.97;;;3.80;98.00;;;;;;5093097;28;20526;-67
2022/01/22 11:06:32;;;;;;;1.10;1.00;;;3.90;98.00;;;;;;5093060;28;20448;-67
2022/01/22 11:09:01;;;;;;;1.10;1.00;;;3.90;98.00;;;;;;5092913;28;20484;-67
2022/01/22 11:11:29;;;;;;;1.10;1.00;;;3.90;98.00;;;;;;5092852;28;20496;-67
2022/01/22 11:13:56;;;;;;;1.93;1.60;;;3.90;98.00;;;;;;5092552;28;20970;-67
2022/01/22 11:16:26;;;;;;;1.10;1.00;;;3.90;98.00;;;;;;5092464;28;20526;-67
2022/01/22 11:18:55;;;;;;;1.10;1.00;;;4.00;98.00;;;;;;5091699;28;20513;-67
2022/01/22 11:21:22;;;;;;;1.10;1.00;;;4.00;98.00;;;;;;5093676;28;20864;-67
2022/01/22 11:23:50;;;;;;;1.30;1.20;;;4.00;98.00;;;;;;5093065;28;20487;-66
2022/01/22 11:26:19;;;;;;;1.10;1.10;;;4.00;98.00;;;;;;5093346;28;20521;-67
2022/01/22 11:28:47;;;;;;;1.10;1.00;;;4.10;98.00;;;;;;5092141;28;20542;-67
2022/01/22 11:31:18;;;;;;;1.20;1.10;;;4.10;98.00;;;;;;5092184;28;20607;-67
2022/01/22 11:33:47;;;;;;;1.10;1.00;;;4.10;98.00;;;;;;5091083;28;20546;-67
2022/01/22 11:36:19;;;;;;;1.30;1.00;;;4.10;98.00;;;;;;5092265;28;20570;-67
2022/01/22 11:38:53;;;;;;;1.20;1.10;;;4.10;98.00;;;;;;5092123;28;20488;-67
2022/01/22 11:41:23;;;;;;;1.40;1.20;;;4.00;98.00;;;;;;5092089;28;20462;-67
2022/01/22 11:44:04;;;;;;;1.30;1.20;;;4.00;98.00;;;;;;5092450;28;20451;-66
2022/01/22 11:46:35;;;;;;;1.30;1.03;;;4.10;98.00;;;;;;5093122;28;20447;-66
2022/01/22 11:49:25;;;;;;;1.10;1.10;;;4.10;98.00;;;;;;5092188;28;20454;-67
2022/01/22 11:51:53;;;;;;;1.10;0.97;;;4.10;98.00;;;;;;5091897;28;20452;-68
2022/01/22 11:54:22;;;;;;;1.10;1.00;;;4.10;98.00;;;;;;5092042;28;20491;-67
2022/01/22 11:56:53;;;;;;;2.37;2.03;;;4.10;98.00;;;;;;5091413;28;20518;-67
2022/01/22 11:59:37;;;;;;;1.33;1.27;;;4.10;98.00;;;;;;5091657;28;20448;-67
2022/01/22 12:02:12;;;;;;;1.10;1.07;;;4.20;98.00;;;;;;5091675;28;20491;-67
2022/01/22 12:04:53;;;;;;;1.67;1.50;;;4.20;98.00;;;;;;5091748;28;20451;-67
2022/01/22 12:07:22;;;;;;;1.10;1.10;;;4.20;98.00;;;;;;5091754;28;20484;-68
2022/01/22 12:16:16;;;;;;;1.80;1.70;;;4.30;98.00;;;;;;5091697;28;20827;-67
2022/01/22 12:18:54;;;;;;;1.10;1.10;;;4.30;98.00;;;;;;5091370;28;20493;-67
2022/01/22 12:21:33;;;;;;;1.40;1.30;;;4.30;98.00;;;;;;5091689;28;20463;-67
2022/01/22 12:24:02;;;;;;;1.10;1.10;;;4.30;98.00;;;;;;5091176;28;20456;-67
2022/01/22 12:27:01;;;;;;;1.20;1.07;;;4.30;98.00;;;;;;5091417;28;21024;-67
2022/01/22 12:29:42;;;;;;;1.10;1.10;;;4.30;98.00;;;;;;5057283;28;20452;-67
2022/01/22 12:32:19;;;;;;;1.10;1.00;;;4.30;98.00;;;;;;5091080;28;20463;-67
2022/01/22 12:35:04;;;;;;;1.10;0.97;;;4.30;98.00;;;;;;5091138;28;20455;-67
2022/01/22 12:37:31;;;;;;;1.10;1.00;;;4.30;98.00;;;;;;5090999;28;20491;-67
2022/01/22 12:40:05;;;;;;;1.20;1.17;;;4.30;98.00;;;;;;5091207;28;20981;-67
2022/01/22 12:42:53;;;;;;;1.97;1.77;;;4.30;98.00;;;;;;5091177;28;20452;-67
2022/01/22 12:45:25;;;;;;;2.50;1.67;;;4.40;98.00;;;;;;5091203;28;20950;-67
2022/01/22 12:47:54;;;;;;;1.10;1.00;;;4.50;98.00;;;;;;5091153;28;20452;-67
2022/01/22 12:50:30;;;;;;;1.10;1.03;;;4.50;98.00;;;;;;5091034;28;20510;-67
2022/01/22 12:53:03;;;;;;;1.10;0.90;;;4.50;98.00;;;;;;5090922;28;20499;-67
2022/01/22 12:58:21;;;;;;;1.57;1.47;;;4.50;98.00;;;;;;5090687;28;20475;-67
2022/01/22 13:00:51;;;;;;;1.10;1.10;;;4.60;98.00;;;;;;5091020;28;20547;-67
2022/01/22 13:03:32;;;;;;;1.10;1.00;;;4.60;98.00;;;;;;5090845;28;20536;-67
2022/01/22 13:05:59;;;;;;;1.10;1.00;;;4.60;98.00;;;;;;5090840;28;20511;-67
2022/01/22 13:08:30;;;;;;;1.10;0.97;;;4.60;98.00;;;;;;5090877;28;20540;-67
2022/01/22 13:10:59;;;;;;;1.10;1.07;;;4.60;98.00;;;;;;5090944;28;20703;-67
2022/01/22 13:13:27;;;;;;;1.10;0.90;;;4.70;98.00;;;;;;5090846;28;20542;-67
2022/01/22 13:16:06;;;;;;;1.37;1.33;;;4.90;98.00;;;;;;5090856;28;20541;-67
2022/01/22 13:18:50;;;;;;;1.70;1.20;;;5.00;98.00;;;;;;5090658;28;20564;-66
2022/01/22 13:21:19;;;;;;;1.10;1.00;;;5.00;98.00;;;;;;5090782;28;20462;-67
2022/01/22 13:23:58;;;;;;;1.10;1.00;;;4.90;98.00;;;;;;5090482;28;20524;-70
2022/01/22 13:26:40;;;;;;;1.13;1.10;;;4.90;98.00;;;;;;5090041;28;20451;-70
2022/01/22 13:29:16;;;;;;;1.23;1.23;;;4.80;98.00;;;;;;5091701;28;20884;-70
2022/01/22 13:32:06;;;;;;;1.10;1.00;;;4.80;98.00;;;;;;5091418;28;20459;-69
2022/01/22 13:34:52;;;;;;;1.10;1.10;;;4.90;98.00;;;;;;5090703;28;20981;-69
2022/01/22 13:40:22;;;;;;;1.20;1.20;;;4.80;98.00;;;;;;5091462;28;20543;-68
2022/01/22 13:48:37;;;;;;;1.40;1.40;;;4.80;98.00;;;;;;5095369;28;20856;-67
2022/01/22 13:51:06;;;;;;;1.27;1.17;;;4.90;98.00;;;;;;5095147;28;20455;-68
2022/01/22 13:53:37;;;;;;;1.50;1.40;;;5.00;98.00;;;;;;5094854;28;20506;-68
2022/01/22 13:56:08;;;;;;;1.10;0.90;;;5.00;98.00;;;;;;5094514;28;20506;-68
2022/01/22 13:58:36;;;;;;;2.13;1.43;;;4.90;98.00;;;;;;5094731;28;20487;-68
2022/01/22 14:01:16;;;;;;;1.50;1.20;;;4.90;98.00;;;;;;5094619;28;20455;-68
2022/01/22 14:03:45;;;;;;;1.50;1.40;;;4.80;98.00;;;;;;5094375;28;20507;-69
2022/01/22 14:06:13;;;;;;;1.10;1.00;;;4.70;98.00;;;;;;5094587;28;20482;-69
2022/01/22 14:08:40;;;;;;;2.40;1.30;;;4.80;98.00;;;;;;5094485;28;20993;-68
2022/01/22 14:11:09;;;;;;;1.10;1.00;;;4.90;98.00;;;;;;5094477;28;20538;-68
2022/01/22 14:13:37;;;;;;;1.10;0.90;;;4.80;98.00;;;;;;5094493;28;20460;-68
2022/01/22 14:16:18;;;;;;;1.13;1.13;;;4.70;98.00;;;;;;5094558;28;20483;-69
2022/01/22 14:18:48;;;;;;;1.33;1.30;;;4.70;98.00;;;;;;5094521;28;20502;-69
2022/01/22 14:21:19;;;;;;;1.10;0.90;;;4.80;98.00;;;;;;5094363;28;20558;-69
2022/01/22 14:23:49;;;;;;;1.70;1.30;;;4.80;98.00;;;;;;5093205;28;20940;-69
2022/01/22 14:26:21;;;;;;;2.40;1.40;;;4.70;98.00;;;;;;5094479;28;20452;-69
2022/01/22 14:28:51;;;;;;;1.20;1.20;;;4.60;98.00;;;;;;5094423;28;20535;-69
2022/01/22 14:31:29;;;;;;;1.10;1.10;;;4.60;98.00;;;;;;5092553;28;20526;-69
2022/01/22 14:34:00;;;;;;;1.10;1.00;;;4.50;98.00;;;;;;5094182;28;20491;-69
2022/01/22 14:36:29;;;;;;;1.10;1.00;;;4.50;98.00;;;;;;5094253;28;20858;-69
2022/01/22 14:39:12;;;;;;;1.47;1.30;;;4.50;98.00;;;;;;5093919;28;20518;-69
2022/01/22 14:44:37;;;;;;;1.73;1.63;;;4.60;98.00;;;;;;5094296;28;20577;-69